sensor_id;sensor_type;location;lat;lon;timestamp;P1;durP1;ratioP1;P2;durP2;ratioP2
33730;SDS011;22931;48.636;9.000;2022-09-27T11:38:35;0.50;;;0.50;;
33730;SDS011;22931;48.636;9.000;2022-09-27T11:55:27;1.70;;;0.85;;
33730;SDS011;22931;48.636;9.000;2022-09-27T12:06:00;0.50;;;0.50;;
33730;SDS011;22931;48.636;9.000;2022-09-27T12:11:17;1.02;;;0.63;;
33730;SDS011;22931;48.636;9.000;2022-09-27T12:16:27;0.98;;;0.70;;
33730;SDS011;22931;48.636;9.000;2022-09-27T12:21:37;0.82;;;0.68;;
33730;SDS011;22931;48.636;9.000;2022-09-27T12:26:48;1.25;;;0.80;;
33730;SDS011;22931;48.636;9.000;2022-09-27T12:32:01;1.40;;;0.90;;
33730;SDS011;22931;48.636;9.000;2022-09-27T12:37:18;0.93;;;0.73;;
33730;SDS011;22931;48.636;9.000;2022-09-27T12:42:35;1.90;;;0.88;;
33730;SDS011;22931;48.636;9.000;2022-09-27T12:47:51;3.05;;;1.55;;
33730;SDS011;22931;48.636;9.000;2022-09-27T12:53:11;1.33;;;1.10;;
33730;SDS011;22931;48.636;9.000;2022-09-27T12:58:40;1.35;;;1.20;;
33730;SDS011;22931;48.636;9.000;2022-09-27T13:04:14;5.10;;;2.20;;
33730;SDS011;22931;48.636;9.000;2022-09-27T13:09:43;4.53;;;1.60;;
33730;SDS011;22931;48.636;9.000;2022-09-27T13:15:05;4.03;;;1.92;;
33730;SDS011;22931;48.636;9.000;2022-09-27T13:25:53;1.80;;;1.33;;
33730;SDS011;22931;48.636;9.000;2022-09-27T13:31:06;1.02;;;0.85;;
33730;SDS011;22931;48.636;9.000;2022-09-27T13:36:29;2.42;;;0.85;;
33730;SDS011;22931;48.636;9.000;2022-09-27T13:41:41;1.00;;;0.85;;
33730;SDS011;22931;48.636;9.000;2022-09-27T13:47:18;1.48;;;0.82;;
33730;SDS011;22931;48.636;9.000;2022-09-27T13:52:34;1.13;;;0.63;;
33730;SDS011;22931;48.636;9.000;2022-09-27T13:57:45;0.98;;;0.75;;
33730;SDS011;22931;48.636;9.000;2022-09-27T14:03:13;0.80;;;0.60;;
33730;SDS011;22931;48.636;9.000;2022-09-27T14:08:45;4.63;;;0.80;;
33730;SDS011;22931;48.636;9.000;2022-09-27T14:13:59;0.95;;;0.57;;
33730;SDS011;22931;48.636;9.000;2022-09-27T14:19:14;1.63;;;1.17;;
33730;SDS011;22931;48.636;9.000;2022-09-27T14:24:27;0.75;;;0.75;;
33730;SDS011;22931;48.636;9.000;2022-09-27T14:29:38;0.82;;;0.80;;
33730;SDS011;22931;48.636;9.000;2022-09-27T14:40:53;0.50;;;0.50;;
33730;SDS011;22931;48.636;9.000;2022-09-27T14:46:04;0.68;;;0.40;;
33730;SDS011;22931;48.636;9.000;2022-09-27T14:51:19;0.70;;;0.70;;
33730;SDS011;22931;48.636;9.000;2022-09-27T14:56:32;0.63;;;0.60;;
33730;SDS011;22931;48.636;9.000;2022-09-27T15:01:46;0.40;;;0.40;;
33730;SDS011;22931;48.636;9.000;2022-09-27T15:06:58;0.52;;;0.52;;
33730;SDS011;22931;48.636;9.000;2022-09-27T15:12:08;0.63;;;0.60;;
33730;SDS011;22931;48.636;9.000;2022-09-27T15:17:19;0.77;;;0.60;;
33730;SDS011;22931;48.636;9.000;2022-09-27T15:22:33;0.60;;;0.60;;
33730;SDS011;22931;48.636;9.000;2022-09-27T15:27:45;0.38;;;0.38;;
33730;SDS011;22931;48.636;9.000;2022-09-27T15:32:55;0.95;;;0.60;;
33730;SDS011;22931;48.636;9.000;2022-09-27T15:38:14;0.80;;;0.60;;
33730;SDS011;22931;48.636;9.000;2022-09-27T15:43:31;0.73;;;0.60;;
33730;SDS011;22931;48.636;9.000;2022-09-27T15:48:42;0.88;;;0.60;;
33730;SDS011;22931;48.636;9.000;2022-09-27T15:53:52;0.50;;;0.50;;
33730;SDS011;22931;48.636;9.000;2022-09-27T15:59:00;1.23;;;0.82;;
33730;SDS011;22931;48.636;9.000;2022-09-27T16:04:08;2.00;;;0.80;;
33730;SDS011;22931;48.636;9.000;2022-09-27T16:09:19;2.53;;;0.68;;
33730;SDS011;22931;48.636;9.000;2022-09-27T16:14:27;2.90;;;1.80;;
33730;SDS011;22931;48.636;9.000;2022-09-27T16:19:35;1.75;;;1.35;;
33730;SDS011;22931;48.636;9.000;2022-09-27T16:24:45;2.33;;;1.00;;
33730;SDS011;22931;48.636;9.000;2022-09-27T16:35:01;1.67;;;0.93;;
33730;SDS011;22931;48.636;9.000;2022-09-27T16:40:12;2.03;;;1.00;;
33730;SDS011;22931;48.636;9.000;2022-09-27T16:45:21;4.97;;;1.85;;
33730;SDS011;22931;48.636;9.000;2022-09-27T16:50:37;15.88;;;1.63;;
33730;SDS011;22931;48.636;9.000;2022-09-27T16:56:00;3.78;;;1.70;;
33730;SDS011;22931;48.636;9.000;2022-09-27T17:01:08;2.70;;;1.77;;
33730;SDS011;22931;48.636;9.000;2022-09-27T17:06:16;3.95;;;1.27;;
33730;SDS011;22931;48.636;9.000;2022-09-27T17:11:26;1.75;;;0.93;;
33730;SDS011;22931;48.636;9.000;2022-09-27T17:16:34;1.03;;;0.93;;
33730;SDS011;22931;48.636;9.000;2022-09-27T17:21:41;3.03;;;0.93;;
33730;SDS011;22931;48.636;9.000;2022-09-27T17:26:52;1.42;;;0.80;;
33730;SDS011;22931;48.636;9.000;2022-09-27T17:32:00;3.92;;;1.48;;
33730;SDS011;22931;48.636;9.000;2022-09-27T17:37:12;2.28;;;1.50;;
33730;SDS011;22931;48.636;9.000;2022-09-27T17:42:22;1.50;;;1.10;;
33730;SDS011;22931;48.636;9.000;2022-09-27T17:47:30;1.37;;;1.10;;
33730;SDS011;22931;48.636;9.000;2022-09-27T17:52:50;1.58;;;0.88;;
33730;SDS011;22931;48.636;9.000;2022-09-27T17:58:00;1.38;;;0.90;;
33730;SDS011;22931;48.636;9.000;2022-09-27T18:03:08;1.98;;;1.20;;
33730;SDS011;22931;48.636;9.000;2022-09-27T18:08:15;1.98;;;1.08;;
33730;SDS011;22931;48.636;9.000;2022-09-27T18:13:25;4.28;;;1.20;;
33730;SDS011;22931;48.636;9.000;2022-09-27T18:18:34;1.20;;;1.10;;
33730;SDS011;22931;48.636;9.000;2022-09-27T18:23:42;1.60;;;1.20;;
33730;SDS011;22931;48.636;9.000;2022-09-27T18:28:53;1.15;;;0.77;;
33730;SDS011;22931;48.636;9.000;2022-09-27T18:34:06;0.75;;;0.75;;
33730;SDS011;22931;48.636;9.000;2022-09-27T18:39:14;0.70;;;0.70;;
33730;SDS011;22931;48.636;9.000;2022-09-27T18:44:25;1.08;;;0.85;;
33730;SDS011;22931;48.636;9.000;2022-09-27T18:49:33;2.30;;;1.17;;
33730;SDS011;22931;48.636;9.000;2022-09-27T18:54:40;2.30;;;1.25;;
33730;SDS011;22931;48.636;9.000;2022-09-27T18:59:50;2.00;;;1.00;;
33730;SDS011;22931;48.636;9.000;2022-09-27T19:04:58;1.40;;;1.10;;
33730;SDS011;22931;48.636;9.000;2022-09-27T19:10:06;2.28;;;1.30;;
33730;SDS011;22931;48.636;9.000;2022-09-27T19:15:17;3.17;;;1.52;;
33730;SDS011;22931;48.636;9.000;2022-09-27T19:20:25;3.13;;;1.52;;
33730;SDS011;22931;48.636;9.000;2022-09-27T19:25:37;1.55;;;1.42;;
33730;SDS011;22931;48.636;9.000;2022-09-27T19:30:47;1.15;;;0.90;;
33730;SDS011;22931;48.636;9.000;2022-09-27T19:35:58;2.43;;;1.03;;
33730;SDS011;22931;48.636;9.000;2022-09-27T19:41:06;1.00;;;0.95;;
33730;SDS011;22931;48.636;9.000;2022-09-27T19:46:18;1.13;;;1.02;;
33730;SDS011;22931;48.636;9.000;2022-09-27T19:51:27;0.90;;;0.90;;
33730;SDS011;22931;48.636;9.000;2022-09-27T19:56:34;1.10;;;1.00;;
33730;SDS011;22931;48.636;9.000;2022-09-27T20:01:44;0.93;;;0.88;;
33730;SDS011;22931;48.636;9.000;2022-09-27T20:06:52;1.73;;;1.10;;
33730;SDS011;22931;48.636;9.000;2022-09-27T20:12:00;0.75;;;0.75;;
33730;SDS011;22931;48.636;9.000;2022-09-27T20:17:10;1.08;;;0.93;;
33730;SDS011;22931;48.636;9.000;2022-09-27T20:22:18;1.13;;;0.80;;
33730;SDS011;22931;48.636;9.000;2022-09-27T20:27:25;1.00;;;0.90;;
33730;SDS011;22931;48.636;9.000;2022-09-27T20:32:36;0.88;;;0.88;;
33730;SDS011;22931;48.636;9.000;2022-09-27T20:37:44;0.87;;;0.80;;
33730;SDS011;22931;48.636;9.000;2022-09-27T20:42:51;1.35;;;1.10;;
33730;SDS011;22931;48.636;9.000;2022-09-27T20:48:01;1.13;;;1.02;;
33730;SDS011;22931;48.636;9.000;2022-09-27T20:53:09;1.20;;;1.10;;
33730;SDS011;22931;48.636;9.000;2022-09-27T20:58:17;0.60;;;0.60;;
33730;SDS011;22931;48.636;9.000;2022-09-27T21:03:27;0.80;;;0.80;;
33730;SDS011;22931;48.636;9.000;2022-09-27T21:08:34;0.60;;;0.60;;
33730;SDS011;22931;48.636;9.000;2022-09-27T21:13:42;0.65;;;0.57;;
33730;SDS011;22931;48.636;9.000;2022-09-27T21:18:54;0.68;;;0.68;;
33730;SDS011;22931;48.636;9.000;2022-09-27T21:24:03;1.38;;;0.80;;
33730;SDS011;22931;48.636;9.000;2022-09-27T21:29:12;1.45;;;0.90;;
33730;SDS011;22931;48.636;9.000;2022-09-27T21:34:22;0.60;;;0.60;;
33730;SDS011;22931;48.636;9.000;2022-09-27T21:39:30;0.60;;;0.60;;
33730;SDS011;22931;48.636;9.000;2022-09-27T21:44:37;1.08;;;0.73;;
33730;SDS011;22931;48.636;9.000;2022-09-27T21:49:48;0.52;;;0.52;;
33730;SDS011;22931;48.636;9.000;2022-09-27T21:54:55;0.80;;;0.80;;
33730;SDS011;22931;48.636;9.000;2022-09-27T22:00:03;1.67;;;0.90;;
33730;SDS011;22931;48.636;9.000;2022-09-27T22:05:14;0.70;;;0.70;;
33730;SDS011;22931;48.636;9.000;2022-09-27T22:10:23;0.95;;;0.77;;
33730;SDS011;22931;48.636;9.000;2022-09-27T22:15:33;0.57;;;0.57;;
33730;SDS011;22931;48.636;9.000;2022-09-27T22:20:43;1.05;;;0.73;;
33730;SDS011;22931;48.636;9.000;2022-09-27T22:25:51;0.70;;;0.70;;
33730;SDS011;22931;48.636;9.000;2022-09-27T22:31:02;0.50;;;0.50;;
33730;SDS011;22931;48.636;9.000;2022-09-27T22:36:12;1.95;;;0.70;;
33730;SDS011;22931;48.636;9.000;2022-09-27T22:41:20;1.80;;;0.80;;
33730;SDS011;22931;48.636;9.000;2022-09-27T22:46:28;0.63;;;0.63;;
33730;SDS011;22931;48.636;9.000;2022-09-27T22:51:38;1.10;;;1.00;;
33730;SDS011;22931;48.636;9.000;2022-09-27T22:56:46;2.23;;;0.83;;
33730;SDS011;22931;48.636;9.000;2022-09-27T23:02:00;0.50;;;0.50;;
33730;SDS011;22931;48.636;9.000;2022-09-27T23:07:11;0.50;;;0.50;;
33730;SDS011;22931;48.636;9.000;2022-09-27T23:12:18;0.87;;;0.70;;
33730;SDS011;22931;48.636;9.000;2022-09-27T23:17:26;0.70;;;0.70;;
33730;SDS011;22931;48.636;9.000;2022-09-27T23:22:36;0.63;;;0.63;;
33730;SDS011;22931;48.636;9.000;2022-09-27T23:27:43;0.77;;;0.77;;
33730;SDS011;22931;48.636;9.000;2022-09-27T23:32:51;0.63;;;0.63;;
33730;SDS011;22931;48.636;9.000;2022-09-27T23:38:02;1.73;;;0.80;;
33730;SDS011;22931;48.636;9.000;2022-09-27T23:43:10;1.13;;;0.77;;
33730;SDS011;22931;48.636;9.000;2022-09-27T23:48:17;0.50;;;0.50;;
33730;SDS011;22931;48.636;9.000;2022-09-27T23:53:28;0.75;;;0.75;;
33730;SDS011;22931;48.636;9.000;2022-09-27T23:58:36;0.50;;;0.50;;
